sensor_id;sensor_type;location;lat;lon;timestamp;pressure;altitude;pressure_sealevel;temperature;humidity
18500;BME280;9379;52.134;11.576;2023-04-27T05:51:17;101401.19;;;10.98;73.07
18500;BME280;9379;52.134;11.576;2023-04-27T05:53:43;101385.28;;;10.63;73.54
18500;BME280;9379;52.134;11.576;2023-04-27T05:56:10;101401.06;;;10.53;74.58
18500;BME280;9379;52.134;11.576;2023-04-27T05:58:37;101405.75;;;10.85;73.33
18500;BME280;9379;52.134;11.576;2023-04-27T06:01:04;101403.88;;;11.09;72.95
18500;BME280;9379;52.134;11.576;2023-04-27T06:03:31;101405.00;;;11.29;72.51
18500;BME280;9379;52.134;11.576;2023-04-27T06:05:59;101406.06;;;11.04;73.35
18500;BME280;9379;52.134;11.576;2023-04-27T06:08:28;101408.25;;;11.21;72.16
18500;BME280;9379;52.134;11.576;2023-04-27T06:10:55;101406.78;;;11.06;71.15
18500;BME280;9379;52.134;11.576;2023-04-27T06:13:22;101418.31;;;11.51;70.09
18500;BME280;9379;52.134;11.576;2023-04-27T06:15:49;101420.06;;;10.60;72.04
18500;BME280;9379;52.134;11.576;2023-04-27T06:18:17;101419.38;;;11.15;71.38
18500;BME280;9379;52.134;11.576;2023-04-27T06:20:43;101438.63;;;10.48;73.11
18500;BME280;9379;52.134;11.576;2023-04-27T06:23:11;101435.28;;;10.58;73.24
18500;BME280;9379;52.134;11.576;2023-04-27T06:25:39;101429.59;;;10.97;72.14
18500;BME280;9379;52.134;11.576;2023-04-27T06:28:06;101430.25;;;11.01;71.99
18500;BME280;9379;52.134;11.576;2023-04-27T06:30:32;101432.72;;;10.08;74.31
18500;BME280;9379;52.134;11.576;2023-04-27T06:32:59;101429.88;;;11.05;72.51
18500;BME280;9379;52.134;11.576;2023-04-27T06:35:26;101434.97;;;11.31;70.75
18500;BME280;9379;52.134;11.576;2023-04-27T06:37:53;101432.00;;;11.58;70.31
18500;BME280;9379;52.134;11.576;2023-04-27T06:40:23;101437.41;;;11.79;70.04
18500;BME280;9379;52.134;11.576;2023-04-27T06:42:51;101433.34;;;13.45;65.93
18500;BME280;9379;52.134;11.576;2023-04-27T06:45:18;101436.69;;;14.27;64.03
18500;BME280;9379;52.134;11.576;2023-04-27T06:47:45;101420.72;;;15.69;59.43
18500;BME280;9379;52.134;11.576;2023-04-27T06:50:13;101420.97;;;14.53;59.82
18500;BME280;9379;52.134;11.576;2023-04-27T06:52:40;101430.91;;;13.32;62.13
18500;BME280;9379;52.134;11.576;2023-04-27T06:55:07;101436.50;;;12.87;63.55
18500;BME280;9379;52.134;11.576;2023-04-27T06:57:34;101436.91;;;12.07;64.59
18500;BME280;9379;52.134;11.576;2023-04-27T07:00:02;101433.47;;;12.27;65.30
18500;BME280;9379;52.134;11.576;2023-04-27T07:02:29;101430.81;;;12.27;66.68
18500;BME280;9379;52.134;11.576;2023-04-27T07:04:56;101434.28;;;12.39;66.11
18500;BME280;9379;52.134;11.576;2023-04-27T07:07:23;101446.47;;;12.53;64.58
18500;BME280;9379;52.134;11.576;2023-04-27T07:09:50;101444.50;;;12.23;64.87
18500;BME280;9379;52.134;11.576;2023-04-27T07:12:16;101445.28;;;11.80;66.89
18500;BME280;9379;52.134;11.576;2023-04-27T07:14:43;101459.31;;;11.37;67.15
18500;BME280;9379;52.134;11.576;2023-04-27T07:17:12;101450.53;;;10.91;67.98
18500;BME280;9379;52.134;11.576;2023-04-27T07:19:38;101446.19;;;11.01;67.67
18500;BME280;9379;52.134;11.576;2023-04-27T07:22:06;101451.28;;;11.04;69.13
18500;BME280;9379;52.134;11.576;2023-04-27T07:24:32;101439.09;;;11.57;68.04
18500;BME280;9379;52.134;11.576;2023-04-27T07:26:59;101439.69;;;12.17;66.96
18500;BME280;9379;52.134;11.576;2023-04-27T07:29:28;101444.22;;;11.60;65.96
18500;BME280;9379;52.134;11.576;2023-04-27T07:31:55;101450.38;;;11.72;66.50
18500;BME280;9379;52.134;11.576;2023-04-27T07:34:23;101452.28;;;12.04;65.44
18500;BME280;9379;52.134;11.576;2023-04-27T07:36:50;101439.00;;;11.70;65.22
18500;BME280;9379;52.134;11.576;2023-04-27T07:39:18;101454.22;;;12.02;64.60
18500;BME280;9379;52.134;11.576;2023-04-27T07:41:45;101448.56;;;14.82;59.38
18500;BME280;9379;52.134;11.576;2023-04-27T07:44:12;101458.25;;;13.24;62.79
18500;BME280;9379;52.134;11.576;2023-04-27T07:46:39;101443.03;;;15.60;55.17
18500;BME280;9379;52.134;11.576;2023-04-27T07:49:06;101441.66;;;16.11;52.87
18500;BME280;9379;52.134;11.576;2023-04-27T07:51:34;101442.78;;;15.53;53.02
18500;BME280;9379;52.134;11.576;2023-04-27T07:54:01;101452.50;;;16.37;51.67
18500;BME280;9379;52.134;11.576;2023-04-27T07:56:28;101450.88;;;15.24;55.21
18500;BME280;9379;52.134;11.576;2023-04-27T07:58:57;101454.97;;;13.72;59.03
18500;BME280;9379;52.134;11.576;2023-04-27T08:01:24;101455.19;;;12.87;59.92
18500;BME280;9379;52.134;11.576;2023-04-27T08:03:51;101460.53;;;13.29;59.22
18500;BME280;9379;52.134;11.576;2023-04-27T08:06:18;101455.88;;;13.52;58.52
18500;BME280;9379;52.134;11.576;2023-04-27T08:08:46;101454.50;;;12.42;59.80
18500;BME280;9379;52.134;11.576;2023-04-27T08:11:13;101458.13;;;12.52;61.43
18500;BME280;9379;52.134;11.576;2023-04-27T08:13:39;101453.59;;;12.20;61.15
18500;BME280;9379;52.134;11.576;2023-04-27T08:16:06;101464.56;;;12.38;57.87
18500;BME280;9379;52.134;11.576;2023-04-27T08:18:33;101449.16;;;12.53;60.26
18500;BME280;9379;52.134;11.576;2023-04-27T08:21:00;101466.13;;;12.52;58.78
18500;BME280;9379;52.134;11.576;2023-04-27T08:23:27;101461.81;;;12.40;58.45
18500;BME280;9379;52.134;11.576;2023-04-27T08:25:57;101466.03;;;13.16;57.91
18500;BME280;9379;52.134;11.576;2023-04-27T08:28:23;101461.31;;;12.67;59.22
18500;BME280;9379;52.134;11.576;2023-04-27T08:30:50;101461.09;;;12.91;57.72
18500;BME280;9379;52.134;11.576;2023-04-27T08:33:17;101462.66;;;13.14;58.57
18500;BME280;9379;52.134;11.576;2023-04-27T08:35:44;101464.91;;;12.77;61.10
18500;BME280;9379;52.134;11.576;2023-04-27T08:38:10;101458.47;;;12.79;59.95
18500;BME280;9379;52.134;11.576;2023-04-27T08:40:41;101459.00;;;13.15;59.70
18500;BME280;9379;52.134;11.576;2023-04-27T08:43:09;101460.78;;;12.52;59.37
18500;BME280;9379;52.134;11.576;2023-04-27T08:45:36;101459.25;;;12.91;58.77
18500;BME280;9379;52.134;11.576;2023-04-27T08:48:03;101465.22;;;13.67;58.39
18500;BME280;9379;52.134;11.576;2023-04-27T08:50:30;101457.19;;;12.74;56.29
18500;BME280;9379;52.134;11.576;2023-04-27T08:52:57;101459.16;;;12.61;56.54
18500;BME280;9379;52.134;11.576;2023-04-27T08:55:24;101462.75;;;12.71;56.78
18500;BME280;9379;52.134;11.576;2023-04-27T08:57:55;101464.31;;;12.73;57.31
18500;BME280;9379;52.134;11.576;2023-04-27T09:00:24;101455.94;;;12.03;55.69
18500;BME280;9379;52.134;11.576;2023-04-27T09:02:51;101451.72;;;11.89;56.80
18500;BME280;9379;52.134;11.576;2023-04-27T09:05:19;101445.22;;;12.89;57.07
18500;BME280;9379;52.134;11.576;2023-04-27T09:07:57;101445.22;;;13.61;57.11
18500;BME280;9379;52.134;11.576;2023-04-27T09:10:24;101444.94;;;13.95;55.55
18500;BME280;9379;52.134;11.576;2023-04-27T09:12:55;101447.63;;;13.34;55.75
18500;BME280;9379;52.134;11.576;2023-04-27T09:15:23;101444.16;;;12.48;56.47
18500;BME280;9379;52.134;11.576;2023-04-27T09:17:54;101439.47;;;12.73;54.88
18500;BME280;9379;52.134;11.576;2023-04-27T09:20:21;101447.59;;;12.50;54.22
18500;BME280;9379;52.134;11.576;2023-04-27T09:22:51;101441.59;;;12.58;53.52
18500;BME280;9379;52.134;11.576;2023-04-27T09:25:24;101446.69;;;12.82;54.17
18500;BME280;9379;52.134;11.576;2023-04-27T09:27:51;101438.66;;;12.61;53.88
18500;BME280;9379;52.134;11.576;2023-04-27T09:30:18;101441.94;;;12.65;53.73
18500;BME280;9379;52.134;11.576;2023-04-27T09:32:51;101439.44;;;12.20;55.08
18500;BME280;9379;52.134;11.576;2023-04-27T09:35:23;101437.44;;;12.33;54.76
18500;BME280;9379;52.134;11.576;2023-04-27T09:37:50;101439.44;;;12.52;57.45
18500;BME280;9379;52.134;11.576;2023-04-27T09:40:18;101433.94;;;13.48;55.96
18500;BME280;9379;52.134;11.576;2023-04-27T09:42:48;101427.69;;;14.38;53.72
18500;BME280;9379;52.134;11.576;2023-04-27T09:45:16;101415.00;;;14.01;50.59
18500;BME280;9379;52.134;11.576;2023-04-27T09:47:43;101425.69;;;14.01;50.88
18500;BME280;9379;52.134;11.576;2023-04-27T09:50:12;101412.06;;;13.64;52.94
18500;BME280;9379;52.134;11.576;2023-04-27T10:03:06;101425.28;;;12.51;54.11
18500;BME280;9379;52.134;11.576;2023-04-27T10:05:53;101424.31;;;12.73;54.25
18500;BME280;9379;52.134;11.576;2023-04-27T10:08:29;101424.13;;;14.08;53.06
18500;BME280;9379;52.134;11.576;2023-04-27T10:10:56;101423.66;;;14.82;50.10
18500;BME280;9379;52.134;11.576;2023-04-27T10:13:24;101413.94;;;15.28;49.46
18500;BME280;9379;52.134;11.576;2023-04-27T10:15:52;101423.13;;;15.15;48.41
18500;BME280;9379;52.134;11.576;2023-04-27T10:18:26;101430.28;;;13.49;53.13
18500;BME280;9379;52.134;11.576;2023-04-27T10:20:54;101431.03;;;13.61;52.00
18500;BME280;9379;52.134;11.576;2023-04-27T10:23:22;101431.78;;;13.72;54.54
18500;BME280;9379;52.134;11.576;2023-04-27T10:25:49;101432.59;;;13.33;52.32
18500;BME280;9379;52.134;11.576;2023-04-27T10:28:16;101437.66;;;13.15;53.65
18500;BME280;9379;52.134;11.576;2023-04-27T10:30:44;101439.88;;;13.31;53.60
18500;BME280;9379;52.134;11.576;2023-04-27T10:33:15;101436.66;;;13.58;54.69
18500;BME280;9379;52.134;11.576;2023-04-27T10:35:52;101432.59;;;14.32;53.58
18500;BME280;9379;52.134;11.576;2023-04-27T10:38:26;101434.31;;;14.24;53.87
18500;BME280;9379;52.134;11.576;2023-04-27T10:40:54;101417.09;;;15.60;50.50
18500;BME280;9379;52.134;11.576;2023-04-27T10:43:24;101420.84;;;15.30;50.75
18500;BME280;9379;52.134;11.576;2023-04-27T10:45:52;101434.16;;;14.16;50.42
18500;BME280;9379;52.134;11.576;2023-04-27T10:48:19;101424.94;;;13.07;52.25
18500;BME280;9379;52.134;11.576;2023-04-27T10:50:46;101430.00;;;13.22;54.33
18500;BME280;9379;52.134;11.576;2023-04-27T10:53:13;101431.31;;;13.58;53.24
18500;BME280;9379;52.134;11.576;2023-04-27T10:55:41;101435.28;;;14.13;52.92
18500;BME280;9379;52.134;11.576;2023-04-27T10:58:08;101432.09;;;13.89;51.79
18500;BME280;9379;52.134;11.576;2023-04-27T11:00:37;101434.63;;;13.81;51.12
18500;BME280;9379;52.134;11.576;2023-04-27T11:03:11;101435.94;;;14.06;49.49
18500;BME280;9379;52.134;11.576;2023-04-27T11:05:38;101428.66;;;15.61;47.65
18500;BME280;9379;52.134;11.576;2023-04-27T11:08:09;101426.63;;;15.26;44.69
18500;BME280;9379;52.134;11.576;2023-04-27T11:10:38;101428.31;;;14.61;46.02
18500;BME280;9379;52.134;11.576;2023-04-27T11:13:08;101426.84;;;14.27;48.70
18500;BME280;9379;52.134;11.576;2023-04-27T11:15:45;101428.84;;;13.85;49.59
18500;BME280;9379;52.134;11.576;2023-04-27T11:18:13;101418.59;;;13.81;48.76
18500;BME280;9379;52.134;11.576;2023-04-27T11:20:41;101429.63;;;14.16;50.40
18500;BME280;9379;52.134;11.576;2023-04-27T11:23:08;101436.66;;;14.08;49.81
18500;BME280;9379;52.134;11.576;2023-04-27T11:25:36;101431.84;;;13.92;50.57
18500;BME280;9379;52.134;11.576;2023-04-27T11:28:03;101432.75;;;13.31;52.32
18500;BME280;9379;52.134;11.576;2023-04-27T11:30:32;101430.50;;;13.77;51.17
18500;BME280;9379;52.134;11.576;2023-04-27T11:33:07;101432.31;;;13.36;52.02
18500;BME280;9379;52.134;11.576;2023-04-27T11:35:34;101430.41;;;13.88;53.90
18500;BME280;9379;52.134;11.576;2023-04-27T11:38:01;101423.59;;;14.92;52.82
18500;BME280;9379;52.134;11.576;2023-04-27T11:40:28;101429.69;;;13.86;51.03
18500;BME280;9379;52.134;11.576;2023-04-27T11:42:58;101411.88;;;14.06;52.31
18500;BME280;9379;52.134;11.576;2023-04-27T11:45:28;101430.59;;;14.06;51.11
18500;BME280;9379;52.134;11.576;2023-04-27T11:47:58;101433.00;;;14.09;49.93
18500;BME280;9379;52.134;11.576;2023-04-27T11:50:26;101426.44;;;14.80;49.35
18500;BME280;9379;52.134;11.576;2023-04-27T11:52:53;101421.03;;;15.66;46.56
18500;BME280;9379;52.134;11.576;2023-04-27T11:55:21;101427.09;;;16.13;45.94
18500;BME280;9379;52.134;11.576;2023-04-27T11:57:55;101420.66;;;16.69;46.29
18500;BME280;9379;52.134;11.576;2023-04-27T12:00:22;101423.53;;;16.40;45.73
18500;BME280;9379;52.134;11.576;2023-04-27T12:02:49;101420.53;;;16.61;43.22
18500;BME280;9379;52.134;11.576;2023-04-27T12:05:18;101409.06;;;16.69;44.23
18500;BME280;9379;52.134;11.576;2023-04-27T12:07:45;101414.38;;;17.04;44.37
18500;BME280;9379;52.134;11.576;2023-04-27T12:10:12;101406.72;;;17.17;44.04
18500;BME280;9379;52.134;11.576;2023-04-27T12:12:39;101406.69;;;17.43;44.97
18500;BME280;9379;52.134;11.576;2023-04-27T12:15:09;101414.19;;;15.44;48.58
18500;BME280;9379;52.134;11.576;2023-04-27T12:17:37;101406.28;;;15.42;48.96
18500;BME280;9379;52.134;11.576;2023-04-27T12:20:04;101410.22;;;16.03;46.97
18500;BME280;9379;52.134;11.576;2023-04-27T12:22:33;101411.34;;;16.28;46.00
18500;BME280;9379;52.134;11.576;2023-04-27T12:25:00;101413.25;;;16.36;43.08
18500;BME280;9379;52.134;11.576;2023-04-27T12:27:29;101417.63;;;17.16;44.66
18500;BME280;9379;52.134;11.576;2023-04-27T12:29:56;101411.94;;;16.93;43.72
18500;BME280;9379;52.134;11.576;2023-04-27T12:32:24;101416.47;;;16.21;46.51
18500;BME280;9379;52.134;11.576;2023-04-27T12:34:52;101412.63;;;16.59;45.09
18500;BME280;9379;52.134;11.576;2023-04-27T12:37:19;101419.66;;;15.05;46.37
18500;BME280;9379;52.134;11.576;2023-04-27T12:39:47;101404.84;;;15.11;47.01
18500;BME280;9379;52.134;11.576;2023-04-27T12:42:14;101416.72;;;14.99;47.66
18500;BME280;9379;52.134;11.576;2023-04-27T12:44:43;101405.47;;;14.76;45.94
18500;BME280;9379;52.134;11.576;2023-04-27T12:47:10;101411.38;;;14.89;46.99
18500;BME280;9379;52.134;11.576;2023-04-27T12:49:37;101400.94;;;14.96;47.32
18500;BME280;9379;52.134;11.576;2023-04-27T12:52:04;101406.22;;;15.15;47.22
18500;BME280;9379;52.134;11.576;2023-04-27T12:54:32;101402.97;;;16.13;46.27
18500;BME280;9379;52.134;11.576;2023-04-27T12:57:00;101410.75;;;15.05;46.57
18500;BME280;9379;52.134;11.576;2023-04-27T12:59:30;101407.06;;;15.15;46.17
18500;BME280;9379;52.134;11.576;2023-04-27T13:01:58;101403.88;;;15.02;45.53
18500;BME280;9379;52.134;11.576;2023-04-27T13:04:25;101409.97;;;14.95;45.87
18500;BME280;9379;52.134;11.576;2023-04-27T13:06:52;101398.84;;;14.80;46.31
18500;BME280;9379;52.134;11.576;2023-04-27T13:09:19;101404.53;;;15.61;46.23
18500;BME280;9379;52.134;11.576;2023-04-27T13:11:46;101398.78;;;15.46;44.65
18500;BME280;9379;52.134;11.576;2023-04-27T13:14:14;101398.75;;;16.11;45.55
18500;BME280;9379;52.134;11.576;2023-04-27T13:16:41;101396.94;;;15.84;44.81
18500;BME280;9379;52.134;11.576;2023-04-27T13:19:08;101398.13;;;16.17;43.89
18500;BME280;9379;52.134;11.576;2023-04-27T13:21:35;101400.66;;;16.00;44.58
18500;BME280;9379;52.134;11.576;2023-04-27T13:24:02;101400.78;;;16.44;44.78
18500;BME280;9379;52.134;11.576;2023-04-27T13:26:28;101396.91;;;16.11;45.16
18500;BME280;9379;52.134;11.576;2023-04-27T13:28:55;101395.47;;;15.99;45.63
18500;BME280;9379;52.134;11.576;2023-04-27T13:31:24;101392.25;;;15.21;44.46
18500;BME280;9379;52.134;11.576;2023-04-27T13:33:52;101399.06;;;15.53;45.56
18500;BME280;9379;52.134;11.576;2023-04-27T13:36:19;101393.41;;;15.83;45.59
18500;BME280;9379;52.134;11.576;2023-04-27T13:38:45;101393.16;;;15.02;44.92
18500;BME280;9379;52.134;11.576;2023-04-27T13:41:12;101389.59;;;15.21;46.86
18500;BME280;9379;52.134;11.576;2023-04-27T13:43:39;101393.09;;;15.22;45.67
18500;BME280;9379;52.134;11.576;2023-04-27T13:46:06;101394.44;;;15.08;45.82
18500;BME280;9379;52.134;11.576;2023-04-27T13:48:34;101393.97;;;15.12;46.19
18500;BME280;9379;52.134;11.576;2023-04-27T13:51:01;101393.56;;;15.82;46.41
18500;BME280;9379;52.134;11.576;2023-04-27T13:53:30;101394.94;;;15.58;45.23
18500;BME280;9379;52.134;11.576;2023-04-27T13:55:57;101394.59;;;14.87;45.62
18500;BME280;9379;52.134;11.576;2023-04-27T13:58:25;101394.38;;;14.51;45.85
18500;BME280;9379;52.134;11.576;2023-04-27T14:00:52;101396.47;;;14.67;45.73
18500;BME280;9379;52.134;11.576;2023-04-27T14:03:21;101387.44;;;14.58;45.03
18500;BME280;9379;52.134;11.576;2023-04-27T14:05:49;101392.88;;;15.05;45.06
18500;BME280;9379;52.134;11.576;2023-04-27T14:08:16;101385.47;;;15.27;46.11
18500;BME280;9379;52.134;11.576;2023-04-27T14:10:45;101391.38;;;14.83;46.19
18500;BME280;9379;52.134;11.576;2023-04-27T14:13:12;101392.13;;;15.13;45.16
18500;BME280;9379;52.134;11.576;2023-04-27T14:15:39;101385.28;;;15.01;45.13
18500;BME280;9379;52.134;11.576;2023-04-27T14:18:07;101386.53;;;15.43;46.36
18500;BME280;9379;52.134;11.576;2023-04-27T14:20:34;101382.19;;;15.42;45.34
18500;BME280;9379;52.134;11.576;2023-04-27T14:23:04;101383.09;;;15.61;45.84
18500;BME280;9379;52.134;11.576;2023-04-27T14:25:31;101385.13;;;15.39;44.91
18500;BME280;9379;52.134;11.576;2023-04-27T14:27:59;101385.28;;;15.38;45.43
18500;BME280;9379;52.134;11.576;2023-04-27T14:30:26;101380.91;;;15.00;44.82
18500;BME280;9379;52.134;11.576;2023-04-27T14:32:53;101381.00;;;15.17;44.56
18500;BME280;9379;52.134;11.576;2023-04-27T14:35:20;101384.47;;;14.81;44.08
18500;BME280;9379;52.134;11.576;2023-04-27T14:37:48;101385.72;;;14.86;46.21
18500;BME280;9379;52.134;11.576;2023-04-27T14:40:16;101374.72;;;14.89;44.99
18500;BME280;9379;52.134;11.576;2023-04-27T14:42:43;101374.50;;;14.73;46.26
18500;BME280;9379;52.134;11.576;2023-04-27T14:45:10;101368.84;;;14.86;46.20
18500;BME280;9379;52.134;11.576;2023-04-27T14:47:37;101370.97;;;14.63;45.61
18500;BME280;9379;52.134;11.576;2023-04-27T14:50:05;101374.78;;;14.70;45.89
18500;BME280;9379;52.134;11.576;2023-04-27T14:52:32;101372.53;;;14.66;45.66
18500;BME280;9379;52.134;11.576;2023-04-27T14:54:59;101374.03;;;14.97;45.82
18500;BME280;9379;52.134;11.576;2023-04-27T14:57:27;101370.84;;;14.26;46.62
18500;BME280;9379;52.134;11.576;2023-04-27T14:59:54;101370.91;;;15.02;46.61
18500;BME280;9379;52.134;11.576;2023-04-27T15:02:21;101363.13;;;15.18;45.87
18500;BME280;9379;52.134;11.576;2023-04-27T15:04:48;101356.66;;;15.01;45.41
18500;BME280;9379;52.134;11.576;2023-04-27T15:07:14;101356.00;;;14.89;45.14
18500;BME280;9379;52.134;11.576;2023-04-27T15:09:41;101348.28;;;14.86;45.67
18500;BME280;9379;52.134;11.576;2023-04-27T15:12:08;101360.00;;;15.13;45.05
18500;BME280;9379;52.134;11.576;2023-04-27T15:14:37;101354.59;;;14.95;46.26
18500;BME280;9379;52.134;11.576;2023-04-27T15:17:03;101356.72;;;15.29;46.39
18500;BME280;9379;52.134;11.576;2023-04-27T15:19:30;101352.91;;;15.31;45.79
18500;BME280;9379;52.134;11.576;2023-04-27T15:21:57;101351.00;;;15.04;45.12
18500;BME280;9379;52.134;11.576;2023-04-27T15:24:24;101354.75;;;15.31;45.48
18500;BME280;9379;52.134;11.576;2023-04-27T15:26:51;101349.88;;;15.16;44.52
18500;BME280;9379;52.134;11.576;2023-04-27T15:29:17;101342.50;;;15.28;45.72
18500;BME280;9379;52.134;11.576;2023-04-27T15:31:46;101351.09;;;14.75;44.16
18500;BME280;9379;52.134;11.576;2023-04-27T15:34:13;101328.81;;;14.94;45.00
18500;BME280;9379;52.134;11.576;2023-04-27T15:36:40;101354.47;;;14.77;44.67
18500;BME280;9379;52.134;11.576;2023-04-27T15:39:06;101351.31;;;15.01;44.71
18500;BME280;9379;52.134;11.576;2023-04-27T15:41:33;101347.88;;;15.18;44.63
18500;BME280;9379;52.134;11.576;2023-04-27T15:44:00;101345.91;;;15.21;45.05
18500;BME280;9379;52.134;11.576;2023-04-27T15:46:27;101347.63;;;15.12;44.54
18500;BME280;9379;52.134;11.576;2023-04-27T15:48:55;101347.91;;;15.09;44.53
18500;BME280;9379;52.134;11.576;2023-04-27T15:51:22;101337.78;;;15.03;45.43
18500;BME280;9379;52.134;11.576;2023-04-27T15:53:49;101331.97;;;15.17;44.63
18500;BME280;9379;52.134;11.576;2023-04-27T15:56:16;101336.50;;;15.07;45.11
18500;BME280;9379;52.134;11.576;2023-04-27T15:58:42;101337.94;;;15.01;45.68
18500;BME280;9379;52.134;11.576;2023-04-27T16:01:09;101337.09;;;15.01;46.40
18500;BME280;9379;52.134;11.576;2023-04-27T16:03:36;101334.38;;;15.10;46.81
18500;BME280;9379;52.134;11.576;2023-04-27T16:06:05;101343.97;;;15.03;46.02
18500;BME280;9379;52.134;11.576;2023-04-27T16:08:31;101340.25;;;14.86;47.11
18500;BME280;9379;52.134;11.576;2023-04-27T16:10:59;101331.28;;;14.58;47.35
18500;BME280;9379;52.134;11.576;2023-04-27T16:13:25;101330.31;;;15.06;46.18
18500;BME280;9379;52.134;11.576;2023-04-27T16:15:52;101322.78;;;15.20;46.22
18500;BME280;9379;52.134;11.576;2023-04-27T16:18:19;101322.75;;;14.92;45.75
18500;BME280;9379;52.134;11.576;2023-04-27T16:20:46;101324.53;;;15.01;45.08
18500;BME280;9379;52.134;11.576;2023-04-27T16:23:15;101322.16;;;14.98;45.18
18500;BME280;9379;52.134;11.576;2023-04-27T16:25:41;101314.91;;;15.18;45.06
18500;BME280;9379;52.134;11.576;2023-04-27T16:28:08;101317.31;;;15.11;45.08
18500;BME280;9379;52.134;11.576;2023-04-27T16:30:36;101313.03;;;15.28;45.81
18500;BME280;9379;52.134;11.576;2023-04-27T16:33:03;101307.41;;;15.22;45.92
18500;BME280;9379;52.134;11.576;2023-04-27T16:35:30;101310.66;;;15.53;45.56
18500;BME280;9379;52.134;11.576;2023-04-27T16:37:58;101305.81;;;15.01;46.86
18500;BME280;9379;52.134;11.576;2023-04-27T16:40:26;101303.09;;;15.11;45.36
18500;BME280;9379;52.134;11.576;2023-04-27T16:42:52;101301.06;;;15.23;44.33
18500;BME280;9379;52.134;11.576;2023-04-27T16:45:20;101295.41;;;15.26;45.42
18500;BME280;9379;52.134;11.576;2023-04-27T16:47:46;101287.66;;;14.95;44.56
18500;BME280;9379;52.134;11.576;2023-04-27T16:50:13;101298.53;;;15.21;47.41
18500;BME280;9379;52.134;11.576;2023-04-27T16:52:40;101289.50;;;15.22;45.17
18500;BME280;9379;52.134;11.576;2023-04-27T16:55:07;101295.25;;;15.27;45.80
18500;BME280;9379;52.134;11.576;2023-04-27T16:57:36;101293.09;;;15.03;47.14
18500;BME280;9379;52.134;11.576;2023-04-27T17:00:03;101291.50;;;15.20;44.90
18500;BME280;9379;52.134;11.576;2023-04-27T17:02:32;101281.03;;;15.27;45.52
18500;BME280;9379;52.134;11.576;2023-04-27T17:04:59;101288.28;;;15.44;45.24
18500;BME280;9379;52.134;11.576;2023-04-27T17:07:26;101299.75;;;14.99;45.49
18500;BME280;9379;52.134;11.576;2023-04-27T17:09:56;101301.22;;;14.84;47.14
18500;BME280;9379;52.134;11.576;2023-04-27T17:12:23;101309.09;;;14.85;45.50
18500;BME280;9379;52.134;11.576;2023-04-27T17:14:52;101308.69;;;14.80;45.98
18500;BME280;9379;52.134;11.576;2023-04-27T17:17:19;101309.69;;;14.70;47.50
18500;BME280;9379;52.134;11.576;2023-04-27T17:19:45;101302.91;;;14.85;45.98
18500;BME280;9379;52.134;11.576;2023-04-27T17:22:12;101312.25;;;14.71;46.43
18500;BME280;9379;52.134;11.576;2023-04-27T17:24:39;101307.34;;;14.57;46.98
18500;BME280;9379;52.134;11.576;2023-04-27T17:27:06;101314.94;;;14.42;47.86
18500;BME280;9379;52.134;11.576;2023-04-27T17:29:33;101314.78;;;14.44;49.50
18500;BME280;9379;52.134;11.576;2023-04-27T17:32:01;101322.16;;;14.13;49.86
18500;BME280;9379;52.134;11.576;2023-04-27T17:34:28;101319.34;;;14.24;50.70
18500;BME280;9379;52.134;11.576;2023-04-27T17:36:55;101322.00;;;14.14;51.78
18500;BME280;9379;52.134;11.576;2023-04-27T17:39:22;101319.75;;;13.90;50.76
18500;BME280;9379;52.134;11.576;2023-04-27T17:41:49;101324.53;;;13.96;51.06
18500;BME280;9379;52.134;11.576;2023-04-27T17:44:16;101321.84;;;13.87;51.00
18500;BME280;9379;52.134;11.576;2023-04-27T17:46:47;101323.38;;;13.70;50.20
18500;BME280;9379;52.134;11.576;2023-04-27T17:49:16;101321.56;;;13.80;51.35
18500;BME280;9379;52.134;11.576;2023-04-27T17:51:43;101330.53;;;13.69;52.01
18500;BME280;9379;52.134;11.576;2023-04-27T17:54:12;101322.34;;;13.52;51.78
18500;BME280;9379;52.134;11.576;2023-04-27T17:56:39;101324.81;;;13.34;52.14
18500;BME280;9379;52.134;11.576;2023-04-27T17:59:06;101319.63;;;13.32;53.72
18500;BME280;9379;52.134;11.576;2023-04-27T18:01:33;101325.75;;;13.23;54.10
18500;BME280;9379;52.134;11.576;2023-04-27T18:04:01;101320.81;;;13.19;53.24
18500;BME280;9379;52.134;11.576;2023-04-27T18:06:32;101326.16;;;13.19;53.17
18500;BME280;9379;52.134;11.576;2023-04-27T18:08:58;101322.00;;;13.35;53.28
18500;BME280;9379;52.134;11.576;2023-04-27T18:11:25;101312.97;;;13.27;52.51
18500;BME280;9379;52.134;11.576;2023-04-27T18:13:52;101321.72;;;13.08;54.89
18500;BME280;9379;52.134;11.576;2023-04-27T18:16:19;101321.81;;;13.67;51.79
18500;BME280;9379;52.134;11.576;2023-04-27T18:18:46;101317.47;;;13.76;53.17
18500;BME280;9379;52.134;11.576;2023-04-27T18:21:13;101319.66;;;13.52;53.81
18500;BME280;9379;52.134;11.576;2023-04-27T18:23:41;101313.94;;;13.76;52.99
18500;BME280;9379;52.134;11.576;2023-04-27T18:26:09;101309.59;;;13.84;50.43
18500;BME280;9379;52.134;11.576;2023-04-27T18:28:36;101308.59;;;13.56;52.07
18500;BME280;9379;52.134;11.576;2023-04-27T18:31:12;101320.28;;;13.75;51.00
18500;BME280;9379;52.134;11.576;2023-04-27T18:33:39;101312.84;;;13.78;50.45
18500;BME280;9379;52.134;11.576;2023-04-27T18:36:06;101316.94;;;13.92;50.77
18500;BME280;9379;52.134;11.576;2023-04-27T18:38:33;101318.06;;;13.89;50.46
18500;BME280;9379;52.134;11.576;2023-04-27T18:41:01;101318.72;;;13.72;52.21
18500;BME280;9379;52.134;11.576;2023-04-27T18:43:28;101317.34;;;13.87;50.64
18500;BME280;9379;52.134;11.576;2023-04-27T18:45:55;101313.69;;;13.79;52.72
18500;BME280;9379;52.134;11.576;2023-04-27T18:48:22;101313.66;;;13.69;51.81
18500;BME280;9379;52.134;11.576;2023-04-27T18:50:49;101320.88;;;13.38;53.96
18500;BME280;9379;52.134;11.576;2023-04-27T18:53:15;101309.66;;;13.34;54.69